KUNV/SCE METAR and TAF weather

Enter ICAO airport designator
Station Type Date Time Source
KUNV METAR 2020/08/05 16:53 UTC NOAA

KUNV 051653Z 24010G16KT 10SM BKN060 25/10 A3010


Station Type Date Time Source
KUNV Decoded METAR 2020/08/05 16:53 UTC NOAA

State College, University Park Airport, PA, United States (KUNV) 40-51N 077-51W
Aug 05, 2020 - 12:53 PM EDT / 2020.08.05 1653 UTC
Wind: from the WSW (240 degrees) at 12 MPH (10 KT) gusting to 18 MPH (16 KT):0
Visibility: 10 mile(s):0
Sky conditions: mostly cloudy
Temperature: 77 F (25 C)
Dew Point: 50 F (10 C)
Relative Humidity: 38%
Pressure (altimeter): 30.1 in. Hg (1019 hPa)
ob: KUNV 051653Z 24010G16KT 10SM BKN060 25/10 A3010
cycle: 17

Station Type Date Time Source
KUNV TAF 2020/08/05 12:28 UTC NOAA

TAF KUNV 051126Z 0512/0612 25006KT P6SM SCT025
FM051400 27008KT P6SM SCT040
FM052300 29005KT P6SM FEW250

Example: see airport list